ADDS METAR Data INFO
IDs: Format: Raw Decoded Include TAF

Data at: 0027 UTC 11 Dec 2017

KPNC 102353Z AUTO 25003KT 10SM CLR 12/M07 A3022 RMK AO2 SLP235 T01171072 10189 20117 53002
KPNC 102253Z AUTO 28003KT 10SM CLR 17/M07 A3022 RMK AO2 SLP232 T01721072
KPNC 102153Z AUTO 33009KT 10SM CLR 19/M07 A3021 RMK AO2 SLP230 T01891072
KPNC 102053Z AUTO 30007G16KT 10SM CLR 18/M07 A3021 RMK AO2 SLP231 T01831072 56016
KPNC 101953Z AUTO 31010G16KT 10SM CLR 18/M08 A3022 RMK AO2 SLP236 T01781083
KPNC 101853Z AUTO 30009G17KT 10SM CLR 17/M08 A3024 RMK AO2 SLP240 T01671083
KPNC 101753Z AUTO 31009KT 10SM CLR 15/M08 A3026 RMK AO2 SLP249 T01501078 10150 21017 58003
KPNC 101653Z AUTO 31009G17KT 10SM CLR 12/M08 A3028 RMK AO2 SLP256 T01171078
KPNC 101553Z AUTO 30007KT 10SM CLR 06/M06 A3028 RMK AO2 SLP258 T00611056
KPNC 101453Z AUTO 27006KT 10SM CLR 02/M06 A3027 RMK AO2 SLP257 T00171061 51013
KPNC 101353Z AUTO 25005KT 10SM CLR M01/M08 A3026 RMK AO2 SLP253 T10111078
KPNC 101253Z AUTO 27005KT 10SM CLR M01/M07 A3024 RMK AO2 SLP248 T10111072
KPNC 101153Z AUTO 25003KT 10SM CLR M01/M07 A3023 RMK AO2 SLP241 T10061072 10000 21044 55008
KPNC 101053Z AUTO 22003KT 10SM CLR M01/M07 A3023 RMK AO2 SLP238 T10061067
KPNC 100953Z AUTO 21003KT 10SM CLR M01/M06 A3024 RMK AO2 SLP242 T10111061
KPNC 100853Z AUTO 25003KT 10SM CLR M02/M06 A3026 RMK AO2 SLP249 T10171061 56007
KPNC 100753Z AUTO 00000KT 10SM CLR M04/M07 A3026 RMK AO2 SLP251 T10441072
KPNC 100653Z AUTO 21003KT 10SM CLR M03/M07 A3026 RMK AO2 SLP251 T10281067
KPNC 100553Z AUTO 00000KT 10SM CLR M03/M07 A3028 RMK AO2 SLP257 T10331067 10072 21039 401221050 58002
KPNC 100453Z AUTO 00000KT 10SM CLR M02/M06 A3028 RMK AO2 SLP259 T10221061
KPNC 100353Z AUTO 00000KT 10SM CLR M02/M06 A3028 RMK AO2 SLP261 T10221056
KPNC 100253Z AUTO 00000KT 10SM CLR M01/M06 A3028 RMK AO2 SLP263 T10111056 52011
KPNC 100153Z AUTO 00000KT 10SM CLR 03/M05 A3027 RMK AO2 SLP259 T00281050
KPNC 100053Z AUTO 00000KT 10SM CLR 02/M05 A3026 RMK AO2 SLP253 T00221050
KPNC 092353Z AUTO 31003KT 10SM CLR 07/M05 A3025 RMK AO2 SLP248 T00721050 10122 20072 52007
KPNC 092253Z AUTO 32006KT 10SM CLR 10/M04 A3024 RMK AO2 SLP245 T01001044
KPNC 092153Z AUTO 33011KT 10SM CLR 12/M04 A3023 RMK AO2 SLP242 T01171044
KPNC 092053Z AUTO 32010G17KT 10SM CLR 12/M04 A3023 RMK AO2 SLP240 T01221044 55005
KPNC 091953Z AUTO 30011G20KT 280V340 10SM CLR 12/M04 A3022 RMK AO2 SLP239 T01171044
KPNC 091853Z AUTO 34012KT 10SM CLR 11/M04 A3023 RMK AO2 SLP240 T01111044
KPNC 091753Z AUTO 35011G18KT 10SM CLR 10/M04 A3025 RMK AO2 SLP246 T01001044 10100 21033 50008
KPNC 091653Z AUTO 32009KT 10SM CLR 07/M03 A3026 RMK AO2 SLP252 T00721033
KPNC 091553Z AUTO 29006KT 10SM CLR 03/M04 A3024 RMK AO2 SLP248 T00331039
KPNC 091453Z AUTO 22005KT 10SM CLR M01/M04 A3022 RMK AO2 SLP241 T10111044 53028
KPNC 091353Z AUTO 32003KT 10SM CLR M02/M06 A3019 RMK AO2 SLP231 T10171061
KPNC 091253Z AUTO 34005KT 10SM CLR M02/M07 A3015 RMK AO2 SLP217 T10221067